sensor_id;sensor_type;location;lat;lon;timestamp;pressure;altitude;pressure_sealevel;temperature;humidity
59053;BME280;44843;44.728;10.396;2022-10-16T00:01:33;100873.94;;;18.61;100.00
59053;BME280;44843;44.728;10.396;2022-10-16T00:03:59;100864.19;;;18.61;100.00
59053;BME280;44843;44.728;10.396;2022-10-16T00:06:26;100864.19;;;18.61;100.00
59053;BME280;44843;44.728;10.396;2022-10-16T00:08:52;100861.69;;;18.60;100.00
59053;BME280;44843;44.728;10.396;2022-10-16T00:11:29;100867.94;;;18.59;100.00
59053;BME280;44843;44.728;10.396;2022-10-16T00:13:57;100872.38;;;18.58;100.00
59053;BME280;44843;44.728;10.396;2022-10-16T00:16:23;100879.47;;;18.58;100.00
59053;BME280;44843;44.728;10.396;2022-10-16T00:18:49;100877.91;;;18.55;100.00
59053;BME280;44843;44.728;10.396;2022-10-16T00:21:23;100889.44;;;18.54;100.00
59053;BME280;44843;44.728;10.396;2022-10-16T00:23:54;100891.38;;;18.52;100.00
59053;BME280;44843;44.728;10.396;2022-10-16T00:26:20;100887.88;;;18.51;100.00
59053;BME280;44843;44.728;10.396;2022-10-16T00:28:47;100898.59;;;18.50;100.00
59053;BME280;44843;44.728;10.396;2022-10-16T00:31:14;100898.59;;;18.50;100.00
59053;BME280;44843;44.728;10.396;2022-10-16T00:33:40;100894.97;;;18.51;100.00
59053;BME280;44843;44.728;10.396;2022-10-16T00:36:09;100894.72;;;18.54;100.00
59053;BME280;44843;44.728;10.396;2022-10-16T00:38:35;100899.88;;;18.56;100.00
59053;BME280;44843;44.728;10.396;2022-10-16T00:41:00;100899.75;;;18.57;100.00
59053;BME280;44843;44.728;10.396;2022-10-16T00:43:46;100898.78;;;18.58;100.00
59053;BME280;44843;44.728;10.396;2022-10-16T00:46:19;100895.19;;;18.59;100.00
59053;BME280;44843;44.728;10.396;2022-10-16T00:48:50;100901.16;;;18.61;100.00
59053;BME280;44843;44.728;10.396;2022-10-16T00:51:19;100895.88;;;18.61;100.00
59053;BME280;44843;44.728;10.396;2022-10-16T00:53:47;100897.69;;;18.61;100.00
59053;BME280;44843;44.728;10.396;2022-10-16T00:56:13;100898.66;;;18.60;100.00
59053;BME280;44843;44.728;10.396;2022-10-16T00:58:38;100905.03;;;18.57;100.00
59053;BME280;44843;44.728;10.396;2022-10-16T01:01:04;100899.16;;;18.53;100.00
59053;BME280;44843;44.728;10.396;2022-10-16T01:03:32;100908.19;;;18.51;100.00
59053;BME280;44843;44.728;10.396;2022-10-16T01:06:24;100905.81;;;18.48;100.00
59053;BME280;44843;44.728;10.396;2022-10-16T01:17:09;100902.97;;;18.40;100.00
59053;BME280;44843;44.728;10.396;2022-10-16T01:19:49;100904.06;;;18.37;100.00
59053;BME280;44843;44.728;10.396;2022-10-16T01:22:18;100898.19;;;18.33;100.00
59053;BME280;44843;44.728;10.396;2022-10-16T01:24:48;100899.16;;;18.32;100.00
59053;BME280;44843;44.728;10.396;2022-10-16T01:27:27;100896.25;;;18.36;100.00
59053;BME280;44843;44.728;10.396;2022-10-16T01:32:40;100895.16;;;18.38;100.00
59053;BME280;44843;44.728;10.396;2022-10-16T01:35:39;100893.50;;;18.37;100.00
59053;BME280;44843;44.728;10.396;2022-10-16T01:38:13;100900.44;;;18.38;100.00
59053;BME280;44843;44.728;10.396;2022-10-16T01:40:45;100896.13;;;18.37;100.00
59053;BME280;44843;44.728;10.396;2022-10-16T01:43:18;100898.06;;;18.35;100.00
59053;BME280;44843;44.728;10.396;2022-10-16T01:45:45;100893.88;;;18.32;100.00
59053;BME280;44843;44.728;10.396;2022-10-16T01:48:17;100898.56;;;18.29;100.00
59053;BME280;44843;44.728;10.396;2022-10-16T01:50:44;100900.03;;;18.22;100.00
59053;BME280;44843;44.728;10.396;2022-10-16T01:53:15;100898.75;;;18.16;100.00
59053;BME280;44843;44.728;10.396;2022-10-16T01:55:44;100901.88;;;18.10;100.00
59053;BME280;44843;44.728;10.396;2022-10-16T01:58:12;100902.41;;;18.04;100.00
59053;BME280;44843;44.728;10.396;2022-10-16T02:00:41;100906.25;;;18.00;100.00
59053;BME280;44843;44.728;10.396;2022-10-16T02:03:08;100902.19;;;17.96;100.00
59053;BME280;44843;44.728;10.396;2022-10-16T02:05:47;100908.28;;;17.96;100.00
59053;BME280;44843;44.728;10.396;2022-10-16T02:08:14;100908.53;;;17.93;100.00
59053;BME280;44843;44.728;10.396;2022-10-16T02:10:40;100904.09;;;17.94;100.00
59053;BME280;44843;44.728;10.396;2022-10-16T02:13:10;100911.19;;;17.93;100.00
59053;BME280;44843;44.728;10.396;2022-10-16T02:15:37;100912.25;;;17.90;100.00
59053;BME280;44843;44.728;10.396;2022-10-16T02:18:05;100907.94;;;17.89;100.00
59053;BME280;44843;44.728;10.396;2022-10-16T02:20:53;100904.47;;;17.89;100.00
59053;BME280;44843;44.728;10.396;2022-10-16T02:23:29;100910.47;;;17.91;100.00
59053;BME280;44843;44.728;10.396;2022-10-16T02:25:59;100909.59;;;17.90;100.00
59053;BME280;44843;44.728;10.396;2022-10-16T02:28:38;100906.75;;;17.94;100.00
59053;BME280;44843;44.728;10.396;2022-10-16T02:31:10;100901.69;;;17.90;100.00
59053;BME280;44843;44.728;10.396;2022-10-16T02:33:38;100900.16;;;17.88;100.00
59053;BME280;44843;44.728;10.396;2022-10-16T02:36:05;100902.22;;;17.84;100.00
59053;BME280;44843;44.728;10.396;2022-10-16T02:38:31;100906.03;;;17.80;100.00
59053;BME280;44843;44.728;10.396;2022-10-16T02:40:56;100913.44;;;17.75;100.00
59053;BME280;44843;44.728;10.396;2022-10-16T02:43:22;100914.44;;;17.63;100.00
59053;BME280;44843;44.728;10.396;2022-10-16T02:45:47;100913.97;;;17.58;100.00
59053;BME280;44843;44.728;10.396;2022-10-16T02:48:13;100912.66;;;17.52;100.00
59053;BME280;44843;44.728;10.396;2022-10-16T02:50:38;100923.69;;;17.46;100.00
59053;BME280;44843;44.728;10.396;2022-10-16T02:53:03;100914.44;;;17.40;100.00
59053;BME280;44843;44.728;10.396;2022-10-16T02:55:29;100923.81;;;17.33;100.00
59053;BME280;44843;44.728;10.396;2022-10-16T02:57:54;100929.69;;;17.25;100.00
59053;BME280;44843;44.728;10.396;2022-10-16T03:00:20;100926.69;;;17.19;100.00
59053;BME280;44843;44.728;10.396;2022-10-16T03:02:46;100936.72;;;17.14;100.00
59053;BME280;44843;44.728;10.396;2022-10-16T03:05:12;100931.00;;;17.08;100.00
59053;BME280;44843;44.728;10.396;2022-10-16T03:07:38;100935.78;;;17.03;100.00
59053;BME280;44843;44.728;10.396;2022-10-16T03:10:04;100938.88;;;16.97;100.00
59053;BME280;44843;44.728;10.396;2022-10-16T03:12:30;100928.56;;;16.94;100.00
59053;BME280;44843;44.728;10.396;2022-10-16T03:14:56;100943.63;;;16.92;100.00
59053;BME280;44843;44.728;10.396;2022-10-16T03:17:22;100944.72;;;16.89;100.00
59053;BME280;44843;44.728;10.396;2022-10-16T03:19:48;100944.72;;;16.89;100.00
59053;BME280;44843;44.728;10.396;2022-10-16T03:22:13;100950.13;;;16.88;100.00
59053;BME280;44843;44.728;10.396;2022-10-16T03:24:39;100940.53;;;16.87;100.00
59053;BME280;44843;44.728;10.396;2022-10-16T03:27:04;100943.16;;;16.87;100.00
59053;BME280;44843;44.728;10.396;2022-10-16T03:29:30;100945.06;;;16.85;100.00
59053;BME280;44843;44.728;10.396;2022-10-16T03:31:57;100940.16;;;16.80;100.00
59053;BME280;44843;44.728;10.396;2022-10-16T03:34:22;100943.00;;;16.77;100.00
59053;BME280;44843;44.728;10.396;2022-10-16T03:36:48;100947.03;;;16.70;100.00
59053;BME280;44843;44.728;10.396;2022-10-16T03:39:13;100947.38;;;16.65;100.00
59053;BME280;44843;44.728;10.396;2022-10-16T03:41:39;100945.19;;;16.59;100.00
59053;BME280;44843;44.728;10.396;2022-10-16T03:44:04;100946.41;;;16.55;100.00
59053;BME280;44843;44.728;10.396;2022-10-16T03:46:30;100954.63;;;16.51;100.00
59053;BME280;44843;44.728;10.396;2022-10-16T03:48:55;100950.44;;;16.48;100.00
59053;BME280;44843;44.728;10.396;2022-10-16T03:51:20;100954.13;;;16.45;100.00
59053;BME280;44843;44.728;10.396;2022-10-16T03:53:46;100949.94;;;16.43;100.00
59053;BME280;44843;44.728;10.396;2022-10-16T03:56:11;100951.84;;;16.41;100.00
59053;BME280;44843;44.728;10.396;2022-10-16T03:58:37;100957.44;;;16.36;100.00
59053;BME280;44843;44.728;10.396;2022-10-16T04:01:02;100955.88;;;16.34;100.00
59053;BME280;44843;44.728;10.396;2022-10-16T04:03:27;100954.09;;;16.34;100.00
59053;BME280;44843;44.728;10.396;2022-10-16T04:05:53;100953.13;;;16.35;100.00
59053;BME280;44843;44.728;10.396;2022-10-16T04:08:19;100963.34;;;16.40;100.00
59053;BME280;44843;44.728;10.396;2022-10-16T04:10:44;100957.94;;;16.41;100.00
59053;BME280;44843;44.728;10.396;2022-10-16T04:13:11;100962.25;;;16.42;100.00
59053;BME280;44843;44.728;10.396;2022-10-16T04:15:37;100964.16;;;16.40;100.00
59053;BME280;44843;44.728;10.396;2022-10-16T04:18:03;100965.09;;;16.39;100.00
59053;BME280;44843;44.728;10.396;2022-10-16T04:20:28;100958.06;;;16.40;100.00
59053;BME280;44843;44.728;10.396;2022-10-16T04:22:53;100957.34;;;16.38;100.00
59053;BME280;44843;44.728;10.396;2022-10-16T04:25:19;100959.69;;;16.30;100.00
59053;BME280;44843;44.728;10.396;2022-10-16T04:27:44;100960.13;;;16.23;100.00
59053;BME280;44843;44.728;10.396;2022-10-16T04:30:10;100968.38;;;16.19;100.00
59053;BME280;44843;44.728;10.396;2022-10-16T04:32:35;100962.28;;;16.18;100.00
59053;BME280;44843;44.728;10.396;2022-10-16T04:35:01;100966.16;;;16.13;100.00
59053;BME280;44843;44.728;10.396;2022-10-16T04:37:26;100962.91;;;16.09;100.00
59053;BME280;44843;44.728;10.396;2022-10-16T04:39:53;100959.69;;;16.05;100.00
59053;BME280;44843;44.728;10.396;2022-10-16T04:42:19;100959.16;;;16.00;100.00
59053;BME280;44843;44.728;10.396;2022-10-16T04:44:44;100966.44;;;15.97;100.00
59053;BME280;44843;44.728;10.396;2022-10-16T04:47:10;100966.66;;;15.94;100.00
59053;BME280;44843;44.728;10.396;2022-10-16T04:49:35;100967.84;;;15.90;100.00
59053;BME280;44843;44.728;10.396;2022-10-16T04:52:00;100969.75;;;15.88;100.00
59053;BME280;44843;44.728;10.396;2022-10-16T04:54:26;100976.03;;;15.85;100.00
59053;BME280;44843;44.728;10.396;2022-10-16T04:56:51;100977.09;;;15.82;100.00
59053;BME280;44843;44.728;10.396;2022-10-16T04:59:18;100973.13;;;15.77;100.00
59053;BME280;44843;44.728;10.396;2022-10-16T05:01:44;100979.72;;;15.82;100.00
59053;BME280;44843;44.728;10.396;2022-10-16T05:04:10;100984.06;;;15.83;100.00
59053;BME280;44843;44.728;10.396;2022-10-16T05:06:37;100985.81;;;15.83;100.00
59053;BME280;44843;44.728;10.396;2022-10-16T05:09:04;100982.25;;;15.84;100.00
59053;BME280;44843;44.728;10.396;2022-10-16T05:11:30;100977.81;;;15.84;100.00
59053;BME280;44843;44.728;10.396;2022-10-16T05:13:55;100979.72;;;15.82;100.00
59053;BME280;44843;44.728;10.396;2022-10-16T05:16:20;100980.78;;;15.80;100.00
59053;BME280;44843;44.728;10.396;2022-10-16T05:18:46;100973.97;;;15.77;100.00
59053;BME280;44843;44.728;10.396;2022-10-16T05:21:11;100987.34;;;15.74;100.00
59053;BME280;44843;44.728;10.396;2022-10-16T05:23:36;100981.41;;;15.71;100.00
59053;BME280;44843;44.728;10.396;2022-10-16T05:26:02;100983.22;;;15.70;100.00
59053;BME280;44843;44.728;10.396;2022-10-16T05:28:29;100987.72;;;15.68;100.00
59053;BME280;44843;44.728;10.396;2022-10-16T05:30:55;100993.09;;;15.66;100.00
59053;BME280;44843;44.728;10.396;2022-10-16T05:33:21;100991.53;;;15.64;100.00
59053;BME280;44843;44.728;10.396;2022-10-16T05:35:47;101005.41;;;15.66;100.00
59053;BME280;44843;44.728;10.396;2022-10-16T05:38:13;101004.13;;;15.59;100.00
59053;BME280;44843;44.728;10.396;2022-10-16T05:40:38;101008.69;;;15.57;100.00
59053;BME280;44843;44.728;10.396;2022-10-16T05:43:04;101006.75;;;15.59;100.00
59053;BME280;44843;44.728;10.396;2022-10-16T05:45:30;101015.38;;;15.61;100.00
59053;BME280;44843;44.728;10.396;2022-10-16T05:47:55;101015.91;;;15.66;100.00
59053;BME280;44843;44.728;10.396;2022-10-16T05:50:20;101013.81;;;15.71;100.00
59053;BME280;44843;44.728;10.396;2022-10-16T05:52:46;101015.28;;;15.75;100.00
59053;BME280;44843;44.728;10.396;2022-10-16T05:55:11;101011.50;;;15.79;100.00
59053;BME280;44843;44.728;10.396;2022-10-16T05:57:36;101026.63;;;15.89;100.00
59053;BME280;44843;44.728;10.396;2022-10-16T06:00:03;101018.50;;;15.92;100.00
59053;BME280;44843;44.728;10.396;2022-10-16T06:02:29;101017.88;;;16.01;100.00
59053;BME280;44843;44.728;10.396;2022-10-16T06:04:54;101013.84;;;16.08;100.00
59053;BME280;44843;44.728;10.396;2022-10-16T06:07:20;101018.69;;;16.14;100.00
59053;BME280;44843;44.728;10.396;2022-10-16T06:09:50;101022.78;;;16.18;100.00
59053;BME280;44843;44.728;10.396;2022-10-16T06:12:16;101034.31;;;16.28;100.00
59053;BME280;44843;44.728;10.396;2022-10-16T06:14:41;101031.47;;;16.32;100.00
59053;BME280;44843;44.728;10.396;2022-10-16T06:17:07;101038.59;;;16.42;100.00
59053;BME280;44843;44.728;10.396;2022-10-16T06:19:32;101050.44;;;16.48;100.00
59053;BME280;44843;44.728;10.396;2022-10-16T06:21:57;101041.28;;;16.54;100.00
59053;BME280;44843;44.728;10.396;2022-10-16T06:24:24;101049.47;;;16.62;100.00
59053;BME280;44843;44.728;10.396;2022-10-16T06:26:49;101049.56;;;16.60;100.00
59053;BME280;44843;44.728;10.396;2022-10-16T06:29:14;101051.22;;;16.61;100.00
59053;BME280;44843;44.728;10.396;2022-10-16T06:31:40;101065.84;;;16.65;100.00
59053;BME280;44843;44.728;10.396;2022-10-16T06:34:05;101074.72;;;16.64;100.00
59053;BME280;44843;44.728;10.396;2022-10-16T06:36:34;101071.84;;;16.67;100.00
59053;BME280;44843;44.728;10.396;2022-10-16T06:39:00;101076.28;;;16.67;100.00
59053;BME280;44843;44.728;10.396;2022-10-16T06:41:25;101076.19;;;16.68;100.00
59053;BME280;44843;44.728;10.396;2022-10-16T06:43:51;101087.94;;;16.76;100.00
59053;BME280;44843;44.728;10.396;2022-10-16T06:46:20;101091.94;;;16.81;100.00
59053;BME280;44843;44.728;10.396;2022-10-16T06:48:46;101083.72;;;16.86;100.00
59053;BME280;44843;44.728;10.396;2022-10-16T06:51:14;101081.56;;;16.91;100.00
59053;BME280;44843;44.728;10.396;2022-10-16T06:53:43;101087.47;;;16.95;100.00
59053;BME280;44843;44.728;10.396;2022-10-16T06:56:26;101093.22;;;17.00;100.00
59053;BME280;44843;44.728;10.396;2022-10-16T06:58:52;101100.53;;;17.07;100.00
59053;BME280;44843;44.728;10.396;2022-10-16T07:01:20;101102.72;;;17.14;100.00
59053;BME280;44843;44.728;10.396;2022-10-16T07:03:46;101103.56;;;17.14;100.00
59053;BME280;44843;44.728;10.396;2022-10-16T07:06:14;101113.16;;;17.15;100.00
59053;BME280;44843;44.728;10.396;2022-10-16T07:08:41;101111.16;;;17.19;100.00
59053;BME280;44843;44.728;10.396;2022-10-16T07:11:09;101112.81;;;17.20;100.00
59053;BME280;44843;44.728;10.396;2022-10-16T07:13:36;101117.16;;;17.21;100.00
59053;BME280;44843;44.728;10.396;2022-10-16T07:16:12;101131.16;;;17.21;100.00
59053;BME280;44843;44.728;10.396;2022-10-16T07:18:38;101128.28;;;17.24;100.00
59053;BME280;44843;44.728;10.396;2022-10-16T07:23:30;101133.72;;;17.34;100.00
59053;BME280;44843;44.728;10.396;2022-10-16T07:25:56;101131.56;;;17.39;100.00
59053;BME280;44843;44.728;10.396;2022-10-16T07:28:21;101136.38;;;17.45;100.00
59053;BME280;44843;44.728;10.396;2022-10-16T07:30:47;101136.88;;;17.50;100.00
59053;BME280;44843;44.728;10.396;2022-10-16T07:33:13;101135.44;;;17.58;100.00
59053;BME280;44843;44.728;10.396;2022-10-16T07:35:53;101146.25;;;17.66;100.00
59053;BME280;44843;44.728;10.396;2022-10-16T07:38:19;101142.81;;;17.77;100.00
59053;BME280;44843;44.728;10.396;2022-10-16T07:40:44;101142.25;;;17.84;100.00
59053;BME280;44843;44.728;10.396;2022-10-16T07:43:10;101139.13;;;17.90;100.00
59053;BME280;44843;44.728;10.396;2022-10-16T07:45:35;101143.81;;;17.98;100.00
59053;BME280;44843;44.728;10.396;2022-10-16T07:48:01;101150.19;;;18.07;100.00
59053;BME280;44843;44.728;10.396;2022-10-16T07:50:26;101161.94;;;18.14;100.00
59053;BME280;44843;44.728;10.396;2022-10-16T07:52:52;101159.56;;;18.22;100.00
59053;BME280;44843;44.728;10.396;2022-10-16T07:55:17;101159.28;;;18.25;100.00
59053;BME280;44843;44.728;10.396;2022-10-16T07:57:42;101154.00;;;18.25;100.00
59053;BME280;44843;44.728;10.396;2022-10-16T08:00:08;101160.88;;;18.28;100.00
59053;BME280;44843;44.728;10.396;2022-10-16T08:02:39;101164.94;;;18.32;100.00
59053;BME280;44843;44.728;10.396;2022-10-16T08:05:06;101170.56;;;18.39;100.00
59053;BME280;44843;44.728;10.396;2022-10-16T08:07:31;101163.25;;;18.42;100.00
59053;BME280;44843;44.728;10.396;2022-10-16T08:09:57;101163.72;;;18.47;100.00
59053;BME280;44843;44.728;10.396;2022-10-16T08:12:24;101167.69;;;18.53;100.00
59053;BME280;44843;44.728;10.396;2022-10-16T08:14:49;101167.22;;;18.59;100.00
59053;BME280;44843;44.728;10.396;2022-10-16T08:17:15;101172.00;;;18.65;100.00
59053;BME280;44843;44.728;10.396;2022-10-16T08:19:44;101173.19;;;18.72;100.00
59053;BME280;44843;44.728;10.396;2022-10-16T08:22:10;101176.31;;;18.78;100.00
59053;BME280;44843;44.728;10.396;2022-10-16T08:24:35;101174.16;;;18.83;100.00
59053;BME280;44843;44.728;10.396;2022-10-16T08:27:02;101173.63;;;18.89;100.00
59053;BME280;44843;44.728;10.396;2022-10-16T08:29:28;101174.84;;;18.96;100.00
59053;BME280;44843;44.728;10.396;2022-10-16T08:31:53;101174.69;;;19.09;100.00
59053;BME280;44843;44.728;10.396;2022-10-16T08:34:18;101170.31;;;19.19;100.00
59053;BME280;44843;44.728;10.396;2022-10-16T08:36:44;101167.16;;;19.25;100.00
59053;BME280;44843;44.728;10.396;2022-10-16T08:39:09;101172.19;;;19.28;100.00
59053;BME280;44843;44.728;10.396;2022-10-16T08:44:49;101174.91;;;19.38;100.00
59053;BME280;44843;44.728;10.396;2022-10-16T08:47:26;101172.00;;;19.41;100.00
59053;BME280;44843;44.728;10.396;2022-10-16T08:49:59;101183.25;;;19.33;100.00
59053;BME280;44843;44.728;10.396;2022-10-16T08:52:30;101181.81;;;19.29;100.00
59053;BME280;44843;44.728;10.396;2022-10-16T08:54:57;101183.75;;;19.27;100.00
59053;BME280;44843;44.728;10.396;2022-10-16T08:57:25;101179.28;;;19.28;100.00
59053;BME280;44843;44.728;10.396;2022-10-16T08:59:52;101179.44;;;19.26;100.00
59053;BME280;44843;44.728;10.396;2022-10-16T09:10:56;101174.97;;;19.27;100.00
59053;BME280;44843;44.728;10.396;2022-10-16T09:13:40;101184.25;;;19.21;100.00
59053;BME280;44843;44.728;10.396;2022-10-16T09:16:29;101191.94;;;19.24;100.00
59053;BME280;44843;44.728;10.396;2022-10-16T09:21:40;101192.84;;;19.34;100.00
59053;BME280;44843;44.728;10.396;2022-10-16T09:24:21;101198.97;;;19.35;100.00
59053;BME280;44843;44.728;10.396;2022-10-16T09:26:49;101193.88;;;19.43;100.00
59053;BME280;44843;44.728;10.396;2022-10-16T09:29:16;101187.81;;;19.52;100.00
59053;BME280;44843;44.728;10.396;2022-10-16T09:31:42;101185.13;;;19.64;100.00
59053;BME280;44843;44.728;10.396;2022-10-16T09:34:20;101189.69;;;19.73;100.00
59053;BME280;44843;44.728;10.396;2022-10-16T09:36:50;101185.03;;;19.86;100.00
59053;BME280;44843;44.728;10.396;2022-10-16T09:39:16;101187.00;;;19.94;100.00
59053;BME280;44843;44.728;10.396;2022-10-16T09:41:44;101182.72;;;20.03;100.00
59053;BME280;44843;44.728;10.396;2022-10-16T09:44:28;101182.22;;;20.09;100.00
59053;BME280;44843;44.728;10.396;2022-10-16T09:47:20;101182.50;;;20.06;100.00
59053;BME280;44843;44.728;10.396;2022-10-16T09:50:05;101186.09;;;20.05;100.00
59053;BME280;44843;44.728;10.396;2022-10-16T09:52:44;101182.72;;;20.03;100.00
59053;BME280;44843;44.728;10.396;2022-10-16T09:55:15;101179.72;;;20.07;100.00
59053;BME280;44843;44.728;10.396;2022-10-16T09:57:54;101178.84;;;20.07;100.00
59053;BME280;44843;44.728;10.396;2022-10-16T10:00:21;101184.69;;;20.01;100.00
59053;BME280;44843;44.728;10.396;2022-10-16T10:02:47;101179.56;;;20.09;100.00
59053;BME280;44843;44.728;10.396;2022-10-16T10:05:27;101184.63;;;20.12;100.00
59053;BME280;44843;44.728;10.396;2022-10-16T10:07:58;101181.69;;;20.15;100.00
59053;BME280;44843;44.728;10.396;2022-10-16T10:10:29;101186.03;;;20.16;100.00
59053;BME280;44843;44.728;10.396;2022-10-16T10:12:55;101181.03;;;20.23;100.00
59053;BME280;44843;44.728;10.396;2022-10-16T10:15:21;101176.88;;;20.30;100.00
59053;BME280;44843;44.728;10.396;2022-10-16T10:17:56;101187.25;;;20.43;100.00
59053;BME280;44843;44.728;10.396;2022-10-16T10:22:47;101187.06;;;20.65;100.00
59053;BME280;44843;44.728;10.396;2022-10-16T10:46:41;101178.59;;;20.81;100.00
59053;BME280;44843;44.728;10.396;2022-10-16T10:57:37;101176.19;;;20.68;100.00
59053;BME280;44843;44.728;10.396;2022-10-16T11:00:17;101175.34;;;20.68;100.00
59053;BME280;44843;44.728;10.396;2022-10-16T11:03:06;101172.41;;;20.61;100.00
59053;BME280;44843;44.728;10.396;2022-10-16T11:05:45;101173.25;;;20.62;100.00
59053;BME280;44843;44.728;10.396;2022-10-16T11:08:20;101164.03;;;20.66;100.00
59053;BME280;44843;44.728;10.396;2022-10-16T11:10:56;101165.63;;;20.78;100.00
59053;BME280;44843;44.728;10.396;2022-10-16T11:14:03;101158.53;;;20.88;100.00
59053;BME280;44843;44.728;10.396;2022-10-16T11:16:42;101157.00;;;20.95;100.00
59053;BME280;44843;44.728;10.396;2022-10-16T11:19:12;101152.66;;;21.04;100.00
59053;BME280;44843;44.728;10.396;2022-10-16T11:21:46;101160.22;;;21.09;100.00
59053;BME280;44843;44.728;10.396;2022-10-16T11:27:08;101152.69;;;21.24;100.00
59053;BME280;44843;44.728;10.396;2022-10-16T11:29:35;101151.69;;;21.34;100.00
59053;BME280;44843;44.728;10.396;2022-10-16T11:32:17;101147.53;;;21.42;100.00
59053;BME280;44843;44.728;10.396;2022-10-16T11:34:50;101144.56;;;21.45;100.00
59053;BME280;44843;44.728;10.396;2022-10-16T11:37:21;101147.78;;;21.48;100.00
59053;BME280;44843;44.728;10.396;2022-10-16T11:39:50;101150.75;;;21.45;100.00
59053;BME280;44843;44.728;10.396;2022-10-16T11:42:32;101145.00;;;21.50;100.00
59053;BME280;44843;44.728;10.396;2022-10-16T11:55:31;101142.88;;;21.53;100.00
59053;BME280;44843;44.728;10.396;2022-10-16T11:58:03;101140.81;;;21.47;100.00
59053;BME280;44843;44.728;10.396;2022-10-16T12:00:56;101139.97;;;21.47;100.00
59053;BME280;44843;44.728;10.396;2022-10-16T12:03:34;101138.19;;;21.47;100.00
59053;BME280;44843;44.728;10.396;2022-10-16T12:06:36;101134.78;;;21.55;100.00
59053;BME280;44843;44.728;10.396;2022-10-16T12:08:59;101136.88;;;21.61;100.00
59053;BME280;44843;44.728;10.396;2022-10-16T12:16:56;101140.63;;;21.68;100.00
59053;BME280;44843;44.728;10.396;2022-10-16T12:19:25;101136.72;;;21.72;100.00
59053;BME280;44843;44.728;10.396;2022-10-16T12:21:52;101137.53;;;21.83;100.00
59053;BME280;44843;44.728;10.396;2022-10-16T12:24:39;101141.97;;;21.82;100.00
59053;BME280;44843;44.728;10.396;2022-10-16T12:27:29;101141.13;;;21.91;100.00
59053;BME280;44843;44.728;10.396;2022-10-16T12:30:00;101141.91;;;22.01;100.00
59053;BME280;44843;44.728;10.396;2022-10-16T12:32:30;101144.56;;;22.01;100.00
59053;BME280;44843;44.728;10.396;2022-10-16T12:34:57;101139.00;;;22.05;100.00
59053;BME280;44843;44.728;10.396;2022-10-16T12:37:26;101137.41;;;22.12;100.00
59053;BME280;44843;44.728;10.396;2022-10-16T12:39:54;101150.25;;;22.16;100.00
59053;BME280;44843;44.728;10.396;2022-10-16T12:44:53;101142.00;;;22.19;100.00
59053;BME280;44843;44.728;10.396;2022-10-16T12:49:58;101148.03;;;22.12;100.00
59053;BME280;44843;44.728;10.396;2022-10-16T12:52:44;101152.66;;;22.10;100.00
59053;BME280;44843;44.728;10.396;2022-10-16T12:55:17;101143.88;;;21.99;100.00
59053;BME280;44843;44.728;10.396;2022-10-16T13:00:53;101148.34;;;22.09;100.00
59053;BME280;44843;44.728;10.396;2022-10-16T13:04:35;101139.75;;;22.15;100.00
59053;BME280;44843;44.728;10.396;2022-10-16T13:09:48;101151.53;;;22.22;100.00
59053;BME280;44843;44.728;10.396;2022-10-16T13:15:32;101147.09;;;22.40;100.00
59053;BME280;44843;44.728;10.396;2022-10-16T13:18:12;101151.31;;;22.33;100.00
59053;BME280;44843;44.728;10.396;2022-10-16T13:20:55;101155.75;;;22.42;100.00
59053;BME280;44843;44.728;10.396;2022-10-16T13:26:29;101150.00;;;22.47;100.00
59053;BME280;44843;44.728;10.396;2022-10-16T13:29:00;101150.16;;;22.46;100.00
59053;BME280;44843;44.728;10.396;2022-10-16T13:31:26;101157.84;;;22.39;100.00
59053;BME280;44843;44.728;10.396;2022-10-16T13:33:55;101163.47;;;22.36;100.00
59053;BME280;44843;44.728;10.396;2022-10-16T13:36:27;101154.38;;;22.38;100.00
59053;BME280;44843;44.728;10.396;2022-10-16T13:39:22;101149.06;;;22.38;100.00
59053;BME280;44843;44.728;10.396;2022-10-16T13:41:46;101147.59;;;22.26;100.00
59053;BME280;44843;44.728;10.396;2022-10-16T13:44:15;101153.59;;;22.28;100.00
59053;BME280;44843;44.728;10.396;2022-10-16T13:46:42;101152.34;;;22.23;100.00
59053;BME280;44843;44.728;10.396;2022-10-16T13:49:14;101158.22;;;22.16;100.00
59053;BME280;44843;44.728;10.396;2022-10-16T13:51:40;101153.03;;;22.25;100.00
59053;BME280;44843;44.728;10.396;2022-10-16T13:54:09;101152.91;;;22.26;100.00
59053;BME280;44843;44.728;10.396;2022-10-16T13:56:35;101153.44;;;22.30;100.00
59053;BME280;44843;44.728;10.396;2022-10-16T13:59:03;101155.41;;;22.28;100.00
59053;BME280;44843;44.728;10.396;2022-10-16T14:04:04;101152.53;;;22.39;100.00
59053;BME280;44843;44.728;10.396;2022-10-16T14:06:31;101158.03;;;22.37;100.00
59053;BME280;44843;44.728;10.396;2022-10-16T14:09:09;101153.47;;;22.48;100.00
59053;BME280;44843;44.728;10.396;2022-10-16T14:11:48;101160.16;;;22.52;100.00
59053;BME280;44843;44.728;10.396;2022-10-16T14:14:15;101159.47;;;22.50;100.00
59053;BME280;44843;44.728;10.396;2022-10-16T14:16:42;101158.78;;;22.48;100.00
59053;BME280;44843;44.728;10.396;2022-10-16T14:19:20;101161.88;;;22.43;100.00
59053;BME280;44843;44.728;10.396;2022-10-16T14:21:47;101154.38;;;22.38;100.00